Beef Island, Islas Vírgenes Británicas

12:03 AM AST en Noviembre 28, 2014 (GMT -0400)
Sopers Hole | Change Station
CLOSE
Current Station
Estación meteorológica personal
Location: Tortola, TORTOLA
Altura: 36 ft
Estaciones meteorológicas cercanas

Alt 36 ft 18.38 °N, 64.70 °W | Updated 23 seconds ago

Clear
Despejado
76.6 ° F
Sensación térmica 78 ° F
N
2.0
Viento Variable Viento desde ESE
Gusts 3.0 mph

Hoy
Alta -- | Baja -- ° F
--% Posibilidad de precipitaciones
Ayer
Alta -- | Baja -- ° F
Precip. -- pul
6:32 AM 5:39 PM
Creciente, 36% visible
Presión 29.96 pul
Visibilidad 10.0 Millas
Nubes Despejado
Índice de calor 78 ° F
Punto de rocío 71 ° F
Humedad 83%
Precipitaciones 0.00 pul
Espesor de la nieve No disponible.
UV 0 de una escala de 12
Polen No disponible.
Calidad del aire No disponible.
Flu Activity No disponible.
METAR TISX 280353Z 36004KT 10SM CLR 23/19 A2996 RMK AO2 SLP144 T02280194 403060217 $

More Conditions Fewer Conditions

Presión 29.96 pul
Visibilidad 10.0 Millas
Nubes Despejado
Índice de calor 78 ° F
Punto de rocío 71 ° F
Humedad 83%
Precipitaciones 0.00 pul
Espesor de la nieve No disponible.
UV 0 de una escala de 12
Polen No disponible.
Calidad del aire No disponible.
Flu Activity No disponible.
METAR TISX 280353Z 36004KT 10SM CLR 23/19 A2996 RMK AO2 SLP144 T02280194 403060217 $

More Conditions Fewer Conditions

10-Day Weather Forecast

Almanac

Astronomía

Nov. 28, 2014 Salida Puesta
Hora real
Crepúsculo civil
Crepúsculo náutico
Crepúsculo astronómico
Luna
Horas de luz
Horas de luz
Tomorrow will be .
, % of the Moon is Illuminated

Extremos de hoy

Máximos del país Bajas del país

Community

WunderPhotos

Upload Photos

1,774,176 ¡fotos cargadas!

WunderBlogs® & News

Nearby

Calidad del aire

  Calidad del aire Índice AQ Contaminante
Not available.

Grosos de nieve

Estación Profundido Altura

Actividad de terremotos

Ciudad Distance Mag. Tiempo y dato
Magnitud mínima muestra es 2,5.

Temperaturas de aguas costeras

Lugar Temperatura

Estaciones meteorológicas cercanas